Time;durP1;ratioP1;P1;durP2;ratioP2;P2;SDS_P1;SDS_P2;PMS_P1;PMS_P2;Temp;Humidity;BMP_temperature;BMP_pressure;BME280_temperature;BME280_humidity;BME280_pressure;Samples;Min_cycle;Max_cycle;Signal;HPM_P1;HPM_P2
2022/07/15 00:03:47;;;;;;;0.65;0.60;;;18.90;55.40;21.00;94184.00;;;;10480359;28;45197;-63
2022/07/15 00:09:08;;;;;;;1.33;0.60;;;18.90;55.40;21.00;94184.00;;;;10479731;28;45227;-63
2022/07/15 00:14:30;;;;;;;0.93;0.68;;;18.90;55.40;21.00;94187.00;;;;10480587;28;45288;-63
2022/07/15 00:19:50;;;;;;;1.52;0.70;;;18.90;55.40;21.00;94188.00;;;;10518519;22;45476;-65
2022/07/15 00:25:12;;;;;;;0.73;0.65;;;18.90;55.40;21.00;94196.00;;;;10479162;28;45127;-66
2022/07/15 00:30:37;;;;;;;2.20;0.60;;;18.90;55.50;21.00;94188.00;;;;10479501;28;45135;-66
2022/07/15 00:35:58;;;;;;;0.65;0.57;;;18.90;55.50;21.00;94193.00;;;;10479037;28;45555;-66
2022/07/15 00:41:18;;;;;;;0.93;0.65;;;18.90;55.50;21.00;94179.00;;;;10479114;28;45102;-65
2022/07/15 00:46:42;;;;;;;1.00;0.80;;;18.80;55.40;21.00;94178.00;;;;10479107;28;45157;-65
2022/07/15 00:52:05;;;;;;;0.60;0.50;;;18.80;55.50;21.00;94189.00;;;;10479637;28;45436;-65
2022/07/15 00:57:27;;;;;;;0.63;0.50;;;18.80;55.40;21.00;94196.00;;;;10479279;28;45271;-65
2022/07/15 01:02:50;;;;;;;1.13;0.75;;;18.90;55.50;21.00;94197.00;;;;10472853;28;45154;-66
2022/07/15 01:08:11;;;;;;;1.08;0.70;;;18.90;55.50;21.00;94203.00;;;;10478593;28;45163;-65
2022/07/15 01:13:32;;;;;;;1.00;0.70;;;18.90;55.50;21.00;94199.00;;;;10479256;28;45204;-65
2022/07/15 01:18:54;;;;;;;0.93;0.60;;;18.80;55.50;21.00;94198.00;;;;10478715;28;45123;-65
2022/07/15 01:24:16;;;;;;;1.30;0.80;;;18.80;55.40;21.00;94211.00;;;;10478723;28;45177;-65
2022/07/15 01:29:36;;;;;;;1.25;0.85;;;18.80;55.40;21.00;94213.00;;;;10478386;28;45190;-65
2022/07/15 01:34:57;;;;;;;1.60;0.88;;;18.80;55.50;21.00;94200.00;;;;10478716;28;45676;-65
2022/07/15 01:40:19;;;;;;;1.25;0.82;;;18.80;55.40;21.00;94204.00;;;;10477737;28;45238;-66
2022/07/15 01:45:44;;;;;;;1.77;0.90;;;18.80;55.50;21.00;94202.00;;;;10477197;28;45083;-66
2022/07/15 01:51:06;;;;;;;1.02;0.80;;;18.80;55.40;21.00;94208.00;;;;10477337;28;45290;-66
2022/07/15 01:56:28;;;;;;;1.95;1.10;;;18.80;55.40;21.00;94209.00;;;;10477753;28;45773;-66
2022/07/15 02:01:49;;;;;;;0.80;0.80;;;18.80;55.40;21.00;94197.00;;;;10476079;28;45104;-65
2022/07/15 02:07:10;;;;;;;1.00;0.80;;;18.90;55.50;21.00;94200.00;;;;10476545;28;45149;-66
2022/07/15 02:12:31;;;;;;;1.83;0.98;;;18.80;55.40;21.00;94213.00;;;;10477030;28;45173;-66
2022/07/15 02:17:52;;;;;;;1.27;0.98;;;18.80;55.40;20.90;94200.00;;;;10476680;28;45307;-66
2022/07/15 02:23:13;;;;;;;1.33;1.15;;;18.80;55.40;21.00;94197.00;;;;10475720;28;45222;-66
2022/07/15 02:28:35;;;;;;;1.40;0.90;;;18.80;55.30;20.90;94203.00;;;;10476572;28;45196;-66
2022/07/15 02:33:56;;;;;;;1.67;0.90;;;18.80;55.30;20.90;94197.00;;;;10476474;28;45290;-66
2022/07/15 02:39:17;;;;;;;1.35;0.90;;;18.80;55.30;20.90;94197.00;;;;10475768;28;45290;-66
2022/07/15 02:44:39;;;;;;;2.78;0.90;;;18.80;55.30;20.90;94199.00;;;;10476148;28;45320;-66
2022/07/15 02:49:59;;;;;;;1.95;1.10;;;18.80;55.20;20.90;94191.00;;;;10479330;28;45816;-66
2022/07/15 02:55:20;;;;;;;1.13;0.73;;;18.80;55.20;20.90;94198.00;;;;10482174;28;45792;-67
2022/07/15 03:00:42;;;;;;;1.67;1.00;;;18.80;55.20;20.90;94179.00;;;;10482407;28;45209;-66
2022/07/15 03:06:04;;;;;;;1.65;1.05;;;18.80;55.10;20.90;94191.00;;;;10482922;28;45302;-65
2022/07/15 03:11:24;;;;;;;0.90;0.80;;;18.80;55.10;20.90;94188.00;;;;10482115;28;45220;-66
2022/07/15 03:16:46;;;;;;;1.85;0.95;;;18.80;55.10;20.90;94203.00;;;;10481330;28;45209;-66
2022/07/15 03:22:08;;;;;;;1.65;1.00;;;18.80;55.00;20.90;94195.00;;;;10482362;28;45178;-65
2022/07/15 03:27:29;;;;;;;1.95;1.10;;;18.80;55.00;20.90;94187.00;;;;10481693;28;45208;-66
2022/07/15 03:32:51;;;;;;;1.33;0.93;;;18.80;54.90;20.90;94207.00;;;;10481624;28;45199;-66
2022/07/15 03:38:11;;;;;;;1.52;1.00;;;18.70;54.80;20.90;94209.00;;;;10480973;28;45735;-65
2022/07/15 03:43:32;;;;;;;1.60;1.00;;;18.70;54.80;20.90;94207.00;;;;10481228;28;45809;-66
2022/07/15 03:48:54;;;;;;;1.05;0.88;;;18.70;54.70;20.90;94214.00;;;;10480894;28;45684;-65
2022/07/15 03:54:16;;;;;;;1.75;0.95;;;18.80;54.80;20.90;94214.00;;;;10480631;28;45283;-66
2022/07/15 03:59:37;;;;;;;1.60;1.08;;;18.70;54.70;20.90;94217.00;;;;10480157;28;45163;-66
2022/07/15 04:04:58;;;;;;;1.20;0.88;;;18.70;54.60;20.90;94205.00;;;;10480038;28;45280;-65
2022/07/15 04:10:19;;;;;;;1.15;0.77;;;18.80;54.60;20.90;94206.00;;;;10480170;28;45238;-66
2022/07/15 04:15:40;;;;;;;1.13;0.90;;;18.70;54.50;20.90;94213.00;;;;10481094;28;45712;-65
2022/07/15 04:21:03;;;;;;;1.30;1.00;;;18.70;54.50;20.90;94210.00;;;;10480010;28;45672;-65
2022/07/15 04:26:24;;;;;;;2.13;0.95;;;18.70;54.50;20.90;94204.00;;;;10479395;28;47440;-66
2022/07/15 04:31:45;;;;;;;1.65;0.90;;;18.70;54.30;20.90;94214.00;;;;10479724;28;45154;-65
2022/07/15 04:37:07;;;;;;;1.25;1.10;;;18.70;54.40;20.90;94198.00;;;;10479695;28;45271;-65
2022/07/15 04:42:28;;;;;;;1.58;0.95;;;18.70;54.40;20.80;94188.00;;;;10479301;28;45095;-65
2022/07/15 04:47:48;;;;;;;2.00;0.90;;;18.70;54.30;20.80;94204.00;;;;10479616;28;45175;-65
2022/07/15 04:53:10;;;;;;;1.00;0.80;;;18.70;54.30;20.80;94206.00;;;;10478687;28;45178;-66
2022/07/15 04:58:31;;;;;;;1.25;0.90;;;18.70;54.20;20.80;94202.00;;;;10479238;28;45246;-66
2022/07/15 05:03:52;;;;;;;1.17;0.80;;;18.80;54.20;20.80;94204.00;;;;10478498;28;45181;-66
2022/07/15 05:09:14;;;;;;;1.67;1.00;;;18.80;54.30;20.80;94217.00;;;;10478776;28;45164;-66
2022/07/15 05:14:34;;;;;;;1.55;1.13;;;18.70;54.10;20.80;94199.00;;;;10477544;28;45778;-66
2022/07/15 05:19:56;;;;;;;1.67;0.90;;;18.70;54.20;20.80;94210.00;;;;10477215;28;45366;-65
2022/07/15 05:25:18;;;;;;;1.73;0.88;;;18.70;54.20;20.80;94205.00;;;;10478255;28;45758;-65
2022/07/15 05:30:38;;;;;;;2.08;1.05;;;18.70;54.20;20.80;94220.00;;;;10478775;28;45277;-65
2022/07/15 05:35:59;;;;;;;1.95;1.00;;;18.70;54.20;20.80;94222.00;;;;10478636;28;45195;-64
2022/07/15 05:41:21;;;;;;;0.82;0.70;;;18.70;54.20;20.80;94222.00;;;;10478513;28;45103;-65
2022/07/15 05:46:42;;;;;;;1.73;0.85;;;18.70;54.20;20.80;94222.00;;;;10478406;28;45217;-65
2022/07/15 05:52:03;;;;;;;1.05;0.80;;;18.70;54.20;20.80;94225.00;;;;10478258;28;45073;-64
2022/07/15 05:57:25;;;;;;;1.45;1.00;;;18.70;54.20;20.80;94218.00;;;;10478220;28;45442;-65
2022/07/15 06:02:46;;;;;;;1.00;0.80;;;18.70;54.20;20.80;94218.00;;;;10477460;28;45846;-65
2022/07/15 06:08:07;;;;;;;1.73;0.90;;;18.70;54.20;20.90;94233.00;;;;10477990;28;45322;-65
2022/07/15 06:13:29;;;;;;;2.20;0.80;;;18.70;54.30;20.80;94230.00;;;;10477433;28;45222;-65
2022/07/15 06:18:50;;;;;;;1.05;0.95;;;18.70;54.20;20.80;94233.00;;;;10475798;28;45163;-65
2022/07/15 06:24:11;;;;;;;1.25;0.80;;;18.70;54.20;20.80;94237.00;;;;10520922;22;45762;-61
2022/07/15 06:29:33;;;;;;;1.30;0.98;;;18.70;54.20;20.80;94229.00;;;;10483601;28;45124;-60
2022/07/15 06:34:55;;;;;;;2.08;0.90;;;18.70;54.90;20.80;94235.00;;;;10482386;28;45111;-61
2022/07/15 06:40:16;;;;;;;1.20;0.80;;;18.70;54.30;20.80;94243.00;;;;10473177;28;45421;-61
2022/07/15 06:45:38;;;;;;;1.50;1.00;;;18.70;54.20;20.80;94232.00;;;;10452536;28;45087;-61
2022/07/15 06:50:59;;;;;;;1.50;0.93;;;18.70;54.20;20.80;94234.00;;;;10468839;28;45174;-61
2022/07/15 06:56:19;;;;;;;0.98;0.75;;;18.70;54.20;20.80;94237.00;;;;10464915;28;45874;-61
2022/07/15 07:01:41;;;;;;;1.52;0.88;;;18.70;54.30;20.80;94238.00;;;;10461819;28;45269;-61
2022/07/15 07:07:02;;;;;;;1.42;0.95;;;18.70;54.30;20.80;94250.00;;;;10470524;28;45166;-61
2022/07/15 07:12:23;;;;;;;1.67;0.75;;;18.70;54.30;20.80;94245.00;;;;10448889;28;45866;-61
2022/07/15 07:17:44;;;;;;;1.02;0.85;;;18.70;54.30;20.80;94239.00;;;;10464180;28;45214;-61
2022/07/15 07:23:05;;;;;;;1.17;0.93;;;18.70;54.40;20.80;94251.00;;;;10481510;28;45190;-61
2022/07/15 07:28:26;;;;;;;1.02;0.80;;;18.70;54.30;20.80;94245.00;;;;10482100;28;45187;-61
2022/07/15 07:33:47;;;;;;;1.58;0.90;;;18.70;54.40;20.80;94242.00;;;;10481644;28;45819;-61
2022/07/15 07:39:09;;;;;;;2.30;1.00;;;18.70;54.30;20.80;94245.00;;;;10481175;28;45207;-61
2022/07/15 07:44:30;;;;;;;1.67;1.00;;;18.70;54.40;20.80;94242.00;;;;10480802;28;45190;-61
2022/07/15 07:49:51;;;;;;;1.58;0.95;;;18.70;54.30;20.80;94239.00;;;;10480850;28;45226;-61
2022/07/15 07:55:14;;;;;;;1.77;0.90;;;18.70;54.40;20.80;94235.00;;;;10480962;28;45749;-62
2022/07/15 08:00:36;;;;;;;2.55;0.80;;;18.70;54.40;20.80;94223.00;;;;10478443;28;45088;-61
2022/07/15 08:05:59;;;;;;;2.15;1.00;;;18.70;54.40;20.90;94228.00;;;;10438665;28;45253;-61
2022/07/15 08:11:19;;;;;;;3.35;1.00;;;18.80;54.20;21.00;94216.00;;;;10438789;28;45216;-61
2022/07/15 08:16:42;;;;;;;1.65;0.80;;;18.80;54.10;21.20;94219.00;;;;10438403;28;45174;-63
2022/07/15 08:22:04;;;;;;;2.65;1.00;;;19.00;54.40;21.30;94230.00;;;;10438521;28;45246;-62
2022/07/15 08:27:25;;;;;;;2.67;1.05;;;19.10;54.10;21.20;94235.00;;;;10438473;28;45121;-63
2022/07/15 08:32:45;;;;;;;3.35;1.30;;;19.10;54.10;21.10;94253.00;;;;10437736;28;45816;-63
2022/07/15 08:38:08;;;;;;;3.47;1.40;;;19.00;54.00;21.10;94244.00;;;;10437892;28;45138;-63
2022/07/15 08:43:30;;;;;;;4.25;1.10;;;19.00;54.20;21.10;94249.00;;;;10437649;28;45231;-63
2022/07/15 08:48:52;;;;;;;5.00;1.23;;;19.00;53.70;21.10;94251.00;;;;10436787;28;45704;-62
2022/07/15 08:54:16;;;;;;;2.67;1.30;;;18.90;54.10;21.00;94233.00;;;;10437652;28;45677;-62
2022/07/15 08:59:36;;;;;;;4.20;1.45;;;18.90;54.10;21.00;94251.00;;;;10437768;28;45731;-63
2022/07/15 09:05:24;;;;;;;2.88;1.27;;;18.80;53.70;21.00;94246.00;;;;10436927;28;45127;-63
2022/07/15 09:10:51;;;;;;;3.28;1.13;;;18.80;54.10;21.00;94243.00;;;;10436816;28;45159;-63
2022/07/15 09:16:19;;;;;;;2.47;1.40;;;18.80;54.30;20.90;94251.00;;;;10436996;28;45186;-62
2022/07/15 09:21:43;;;;;;;1.95;1.20;;;18.80;54.40;20.90;94247.00;;;;10436466;28;45351;-62
2022/07/15 09:27:28;;;;;;;1.90;1.10;;;18.80;54.60;20.90;94237.00;;;;10437035;28;45124;-63
2022/07/15 09:38:26;;;;;;;2.05;1.40;;;18.80;54.70;20.90;94240.00;;;;10435868;28;45876;-63
2022/07/15 09:43:52;;;;;;;4.03;1.30;;;18.80;54.80;20.90;94234.00;;;;10436592;28;45747;-63
2022/07/15 09:49:16;;;;;;;1.77;1.20;;;18.80;54.90;20.90;94236.00;;;;10436049;28;45122;-63
2022/07/15 09:54:39;;;;;;;3.28;1.20;;;18.80;54.90;20.90;94239.00;;;;10436365;28;45859;-63
2022/07/15 10:00:02;;;;;;;1.90;1.10;;;18.70;54.90;20.90;94238.00;;;;10459829;28;45284;-63
2022/07/15 10:05:24;;;;;;;3.25;1.50;;;18.70;55.00;20.90;94236.00;;;;10464652;28;45861;-63
2022/07/15 10:10:45;;;;;;;1.95;1.30;;;18.70;55.00;20.90;94228.00;;;;10443419;28;45207;-63
2022/07/15 10:16:24;;;;;;;4.57;1.40;;;18.70;55.00;20.90;94232.00;;;;10440289;28;45104;-62
2022/07/15 10:21:54;;;;;;;2.10;1.10;;;18.80;54.90;21.00;94226.00;;;;10441796;28;45112;-65
2022/07/15 10:27:32;;;;;;;2.15;1.20;;;18.80;55.10;21.00;94214.00;;;;10439391;28;45210;-61
2022/07/15 10:33:14;;;;;;;1.88;1.10;;;18.80;55.00;20.90;94211.00;;;;10442049;28;45091;-61
2022/07/15 10:38:36;;;;;;;1.83;1.30;;;18.80;55.20;20.90;94205.00;;;;10441229;28;45116;-61
2022/07/15 10:43:56;;;;;;;2.45;1.30;;;18.80;55.40;20.90;94205.00;;;;10441724;28;45180;-61
2022/07/15 10:49:32;;;;;;;1.73;1.15;;;18.70;55.40;20.90;94214.00;;;;10442006;28;45203;-61
2022/07/15 10:55:04;;;;;;;2.85;1.20;;;18.80;55.50;20.90;94193.00;;;;10469103;28;45709;-61
2022/07/15 11:00:32;;;;;;;1.60;0.90;;;18.80;55.60;21.00;94190.00;;;;10457625;28;45099;-61
2022/07/15 11:06:06;;;;;;;1.98;1.40;;;18.80;55.40;20.90;94202.00;;;;10478311;28;45783;-61
2022/07/15 11:11:50;;;;;;;1.83;1.10;;;18.80;55.60;20.90;94193.00;;;;10461660;28;45284;-61
2022/07/15 11:17:11;;;;;;;2.25;1.20;;;18.70;55.70;20.90;94176.00;;;;10461961;28;45685;-61
2022/07/15 11:22:32;;;;;;;1.55;0.90;;;18.80;55.60;20.90;94158.00;;;;10461425;27;45752;-61
2022/07/15 11:28:04;;;;;;;2.30;1.20;;;18.80;55.70;20.90;94166.00;;;;10481690;28;45196;-62
2022/07/15 11:33:26;;;;;;;1.88;1.10;;;18.80;55.70;20.90;94146.00;;;;10481648;28;45784;-61
2022/07/15 11:38:48;;;;;;;1.98;1.30;;;18.80;55.70;20.90;94161.00;;;;10481439;28;45820;-61
2022/07/15 11:44:30;;;;;;;2.70;1.30;;;18.80;55.90;21.00;94160.00;;;;10481473;28;45966;-62
2022/07/15 11:49:50;;;;;;;2.58;1.30;;;18.80;55.80;21.00;94158.00;;;;10481106;28;45191;-62
2022/07/15 11:55:13;;;;;;;2.00;1.30;;;18.80;55.70;21.10;94179.00;;;;10481995;28;45197;-62
2022/07/15 12:00:33;;;;;;;2.55;1.42;;;18.90;55.50;20.90;94156.00;;;;10481452;28;45254;-62
2022/07/15 12:06:03;;;;;;;3.65;1.70;;;18.80;53.50;21.00;94159.00;;;;10481032;28;45113;-61
2022/07/15 12:11:28;;;;;;;2.80;1.50;;;18.80;51.60;21.00;94157.00;;;;10480112;28;45130;-61
2022/07/15 12:16:51;;;;;;;2.25;1.40;;;18.80;51.50;21.00;94165.00;;;;10480195;28;45796;-64
2022/07/15 12:22:12;;;;;;;2.15;1.40;;;18.80;52.60;21.10;94164.00;;;;10518262;22;45164;-62
2022/07/15 12:27:36;;;;;;;2.38;1.50;;;18.90;52.10;21.10;94162.00;;;;10478591;28;45130;-65
2022/07/15 12:33:16;;;;;;;4.18;1.65;;;18.90;52.60;21.10;94166.00;;;;10479951;28;45251;-62
2022/07/15 12:38:37;;;;;;;2.25;1.38;;;19.00;52.70;21.10;94161.00;;;;10481025;28;45099;-63
2022/07/15 12:44:02;;;;;;;3.15;1.58;;;19.00;52.70;21.10;94163.00;;;;10480179;28;45895;-65
2022/07/15 12:49:48;;;;;;;2.13;1.23;;;19.00;52.70;21.10;94150.00;;;;10480188;28;45759;-63
2022/07/15 12:55:18;;;;;;;2.40;1.70;;;19.00;52.70;21.10;94160.00;;;;10479719;28;45263;-63
2022/07/15 13:00:42;;;;;;;1.83;1.30;;;19.00;52.70;21.10;94147.00;;;;10479821;28;45167;-64
2022/07/15 13:06:03;;;;;;;3.70;1.77;;;19.00;52.70;21.20;94178.00;;;;10479449;28;45175;-65
2022/07/15 13:11:25;;;;;;;2.85;1.50;;;19.10;52.80;21.20;94148.00;;;;10479462;28;45085;-63
2022/07/15 13:16:47;;;;;;;2.88;1.48;;;19.00;52.90;21.20;94161.00;;;;10479284;28;45113;-63
2022/07/15 13:22:07;;;;;;;3.22;1.30;;;19.00;52.90;21.20;94136.00;;;;10479106;28;45835;-63
2022/07/15 13:27:28;;;;;;;4.72;1.50;;;19.10;53.00;21.20;94153.00;;;;10478800;28;45182;-64
2022/07/15 13:32:50;;;;;;;4.15;1.40;;;19.10;53.00;21.20;94151.00;;;;10478362;28;45874;-64
2022/07/15 13:38:10;;;;;;;2.00;1.30;;;19.10;53.00;21.30;94144.00;;;;10478420;28;45174;-64
2022/07/15 13:43:31;;;;;;;4.00;1.52;;;19.10;53.00;21.30;94157.00;;;;10478279;28;45826;-64
2022/07/15 13:48:53;;;;;;;3.25;1.40;;;19.20;53.10;21.30;94143.00;;;;10477152;28;45183;-66
2022/07/15 13:54:13;;;;;;;2.55;1.60;;;19.20;53.10;21.30;94147.00;;;;10477310;28;45208;-66
2022/07/15 13:59:34;;;;;;;3.65;1.63;;;19.20;53.10;21.30;94142.00;;;;10476968;28;45158;-64
2022/07/15 14:04:56;;;;;;;3.33;1.70;;;19.20;53.10;21.40;94136.00;;;;10477154;28;45832;-63
2022/07/15 14:10:17;;;;;;;2.40;1.40;;;19.20;53.00;21.40;94141.00;;;;10476585;28;45765;-64
2022/07/15 14:15:37;;;;;;;4.65;1.48;;;19.20;53.00;21.40;94132.00;;;;10476741;28;45184;-64
2022/07/15 14:20:59;;;;;;;2.95;1.42;;;19.30;53.00;21.40;94147.00;;;;10476391;28;45093;-65
2022/07/15 14:26:20;;;;;;;2.53;1.50;;;19.30;53.00;21.40;94147.00;;;;10476419;28;45211;-65
2022/07/15 14:31:40;;;;;;;2.17;1.30;;;19.30;53.00;21.50;94139.00;;;;10476415;28;45164;-65
2022/07/15 14:37:02;;;;;;;2.72;1.40;;;19.30;53.00;21.50;94126.00;;;;10476032;28;45226;-65
2022/07/15 14:42:23;;;;;;;2.08;1.35;;;19.30;53.00;21.50;94136.00;;;;10475845;28;45927;-65
2022/07/15 14:47:44;;;;;;;3.05;1.50;;;19.30;52.90;21.50;94133.00;;;;10482102;28;45278;-65
2022/07/15 14:53:06;;;;;;;2.15;1.38;;;19.40;53.00;21.50;94139.00;;;;10482690;28;45188;-65
2022/07/15 14:58:26;;;;;;;2.72;1.50;;;19.40;52.90;21.50;94123.00;;;;10482619;28;45224;-65
2022/07/15 15:20:55;;;;;;;1.52;1.10;;;19.10;53.30;21.40;94142.00;;;;10668511;27;1231893;-66
2022/07/15 15:26:21;;;;;;;2.55;1.40;;;19.00;54.10;21.40;94134.00;;;;10654573;27;45781;-67
2022/07/15 15:31:42;;;;;;;3.53;1.50;;;19.20;53.70;21.60;94142.00;;;;10639069;22;45479;-60
2022/07/15 15:37:04;;;;;;;2.92;1.50;;;19.40;53.40;21.60;94141.00;;;;10537190;27;45687;-60
2022/07/15 15:42:25;;;;;;;2.17;1.10;;;19.40;53.00;21.70;94152.00;;;;10553729;27;45253;-61
2022/07/15 15:47:45;;;;;;;1.55;1.20;;;19.50;53.00;21.70;94155.00;;;;10553133;27;45818;-60
2022/07/15 15:53:07;;;;;;;2.00;1.30;;;19.60;52.90;21.80;94147.00;;;;10553316;27;45186;-62
2022/07/15 15:58:28;;;;;;;3.17;1.33;;;19.60;52.70;21.80;94139.00;;;;10553116;27;45765;-60
2022/07/15 16:03:49;;;;;;;1.85;1.10;;;19.70;52.80;21.80;94143.00;;;;10553332;27;45799;-61
2022/07/15 16:09:10;;;;;;;1.85;1.20;;;19.70;52.70;21.90;94139.00;;;;10553394;27;45920;-60
2022/07/15 16:14:31;;;;;;;1.65;1.10;;;19.80;53.40;21.90;94138.00;;;;10552985;27;45683;-61
2022/07/15 16:19:51;;;;;;;2.35;1.30;;;19.80;52.60;21.90;94145.00;;;;10552130;27;45193;-61
2022/07/15 16:25:13;;;;;;;2.25;1.10;;;19.80;52.60;22.00;94131.00;;;;10552546;27;45138;-61
2022/07/15 16:30:34;;;;;;;1.92;1.08;;;19.80;52.60;22.00;94146.00;;;;10508857;28;45319;-60
2022/07/15 16:35:55;;;;;;;2.00;1.00;;;19.90;52.50;22.00;94153.00;;;;10482065;28;45808;-60
2022/07/15 16:41:17;;;;;;;2.03;1.00;;;19.90;52.40;22.00;94149.00;;;;10482169;28;45166;-60
2022/07/15 16:46:37;;;;;;;2.20;1.40;;;19.90;52.30;22.10;94146.00;;;;10481155;28;45158;-61
2022/07/15 16:51:58;;;;;;;1.67;1.17;;;19.90;52.30;22.10;94149.00;;;;10494960;28;45076;-60
2022/07/15 16:57:20;;;;;;;2.58;1.20;;;20.00;52.50;22.10;94151.00;;;;10481211;28;45691;-61
2022/07/15 17:02:41;;;;;;;2.20;1.00;;;20.00;52.40;22.10;94158.00;;;;10481013;28;45217;-60
2022/07/15 17:08:01;;;;;;;1.25;1.00;;;20.00;52.40;22.10;94153.00;;;;10481056;28;45872;-60
2022/07/15 17:13:23;;;;;;;2.05;1.13;;;20.00;52.40;22.10;94152.00;;;;10489750;28;45675;-60
2022/07/15 17:18:44;;;;;;;1.77;1.10;;;20.00;52.30;22.10;94158.00;;;;10489702;28;45169;-60
2022/07/15 17:24:06;;;;;;;1.13;0.90;;;20.00;52.30;22.10;94151.00;;;;10480946;28;45811;-60
2022/07/15 17:29:27;;;;;;;1.00;0.90;;;20.00;52.30;22.10;94161.00;;;;10481575;28;45380;-60
2022/07/15 17:34:48;;;;;;;1.27;0.90;;;20.00;52.30;22.10;94160.00;;;;10500493;28;45773;-60
2022/07/15 17:40:10;;;;;;;1.50;1.00;;;20.00;52.30;22.10;94154.00;;;;10495579;27;45319;-60
2022/07/15 17:45:32;;;;;;;2.03;0.98;;;20.00;52.40;22.10;94164.00;;;;10479643;28;45178;-60
2022/07/15 17:50:53;;;;;;;1.45;0.93;;;20.00;52.40;22.10;94166.00;;;;10491056;28;45411;-60
2022/07/15 17:56:14;;;;;;;0.90;0.80;;;20.00;52.40;22.10;94164.00;;;;10521350;28;45586;-61
2022/07/15 18:01:35;;;;;;;1.38;1.13;;;20.00;52.50;22.10;94165.00;;;;10519567;28;45757;-60
2022/07/15 18:06:56;;;;;;;1.08;0.90;;;20.00;52.50;22.10;94156.00;;;;10507401;28;45161;-60
2022/07/15 18:12:17;;;;;;;1.33;1.10;;;19.90;52.50;22.10;94172.00;;;;10489332;28;45807;-61
2022/07/15 18:17:40;;;;;;;1.40;0.90;;;19.90;52.50;22.00;94181.00;;;;10478426;28;45166;-60
2022/07/15 18:23:00;;;;;;;1.30;0.90;;;19.90;52.60;22.00;94177.00;;;;10479379;28;45106;-60
2022/07/15 18:28:21;;;;;;;1.08;0.73;;;19.90;52.60;22.00;94169.00;;;;10478324;28;45238;-60
2022/07/15 18:33:42;;;;;;;1.02;0.90;;;19.80;52.60;22.00;94189.00;;;;10477689;28;45161;-60
2022/07/15 18:39:04;;;;;;;1.92;1.00;;;19.80;52.70;22.00;94182.00;;;;10477429;28;45199;-60
2022/07/15 18:44:25;;;;;;;1.50;1.00;;;19.80;52.80;21.90;94185.00;;;;10477900;28;45325;-60
2022/07/15 18:49:47;;;;;;;1.05;0.80;;;19.80;52.80;21.90;94187.00;;;;10477356;28;45214;-60
2022/07/15 18:55:09;;;;;;;1.67;1.00;;;19.80;52.90;21.90;94185.00;;;;10476949;28;45248;-60
2022/07/15 19:00:29;;;;;;;1.60;1.10;;;19.70;52.90;21.90;94208.00;;;;10477760;28;45138;-60
2022/07/15 19:05:53;;;;;;;1.00;0.88;;;19.70;52.90;21.80;94199.00;;;;10477177;28;45274;-61
2022/07/15 19:11:13;;;;;;;1.13;0.80;;;19.70;52.90;21.80;94208.00;;;;10477909;28;45296;-60
2022/07/15 19:16:34;;;;;;;1.88;0.90;;;19.70;53.00;21.80;94210.00;;;;10474213;28;45223;-61
2022/07/15 19:21:56;;;;;;;1.25;0.82;;;19.60;53.00;21.80;94218.00;;;;10475520;28;45830;-60
2022/07/15 19:27:17;;;;;;;1.20;0.90;;;19.60;53.00;21.80;94219.00;;;;10518366;28;45691;-60
2022/07/15 19:32:37;;;;;;;1.38;0.93;;;19.60;53.00;21.80;94214.00;;;;10518246;28;45105;-60
2022/07/15 19:37:59;;;;;;;1.75;0.98;;;19.60;53.70;21.80;94226.00;;;;10518197;28;45114;-60
2022/07/15 19:43:20;;;;;;;1.10;0.90;;;19.50;53.10;21.70;94221.00;;;;10518181;28;45667;-60
2022/07/15 19:48:40;;;;;;;1.02;0.88;;;19.50;53.10;21.70;94241.00;;;;10517540;28;45259;-61
2022/07/15 19:54:02;;;;;;;1.17;0.90;;;19.50;53.20;21.70;94245.00;;;;10517882;28;45173;-60
2022/07/15 20:05:02;;;;;;;1.13;0.70;;;19.50;53.30;21.70;94260.00;;;;10523946;27;45206;-61
2022/07/15 20:10:25;;;;;;;1.00;0.90;;;19.50;53.30;21.70;94274.00;;;;10524632;28;45246;-60
2022/07/15 20:15:46;;;;;;;1.27;0.85;;;19.50;53.30;21.70;94269.00;;;;10524461;28;45161;-60
2022/07/15 20:21:07;;;;;;;1.10;0.80;;;19.50;53.30;21.70;94282.00;;;;10524676;28;45112;-60
2022/07/15 20:26:29;;;;;;;0.80;0.80;;;19.50;53.30;21.60;94282.00;;;;10523921;28;45769;-60
2022/07/15 20:31:50;;;;;;;0.77;0.75;;;19.40;53.30;21.60;94281.00;;;;10523848;28;45888;-61
2022/07/15 20:37:11;;;;;;;0.90;0.63;;;19.40;53.30;21.60;94273.00;;;;10523944;28;45384;-61
2022/07/15 20:42:33;;;;;;;1.45;0.90;;;19.40;53.30;21.60;94292.00;;;;10524005;28;45180;-60
2022/07/15 20:47:54;;;;;;;1.23;0.75;;;19.40;53.30;21.60;94285.00;;;;10523581;28;45250;-60
2022/07/15 20:53:15;;;;;;;1.88;0.80;;;19.40;53.40;21.60;94290.00;;;;10523333;28;45255;-60
2022/07/15 20:58:38;;;;;;;1.00;0.80;;;19.40;53.30;21.60;94291.00;;;;10523058;28;45200;-60
2022/07/15 21:03:58;;;;;;;0.80;0.80;;;19.40;53.40;21.60;94291.00;;;;10523192;28;45098;-60
2022/07/15 21:09:19;;;;;;;1.30;1.00;;;19.40;53.40;21.60;94292.00;;;;10523284;28;45104;-60
2022/07/15 21:14:41;;;;;;;0.95;0.77;;;19.40;53.40;21.60;94276.00;;;;10522617;27;45198;-61
2022/07/15 21:20:04;;;;;;;0.90;0.73;;;19.30;53.30;21.50;94282.00;;;;10522460;28;45378;-60
2022/07/15 21:31:05;;;;;;;1.05;0.75;;;19.30;53.30;21.50;94295.00;;;;10526670;22;45162;-60
2022/07/15 21:36:26;;;;;;;0.98;0.75;;;19.30;53.30;21.50;94288.00;;;;10522488;28;45763;-60
2022/07/15 21:41:46;;;;;;;0.70;0.70;;;19.30;53.30;21.50;94297.00;;;;10522507;28;45175;-59
2022/07/15 21:47:08;;;;;;;1.00;0.80;;;19.30;53.40;21.50;94291.00;;;;10521870;28;45210;-60
2022/07/15 21:52:31;;;;;;;1.00;0.77;;;19.30;53.30;21.50;94284.00;;;;10522148;28;45739;-60
2022/07/15 21:57:51;;;;;;;1.83;0.98;;;19.30;53.40;21.50;94291.00;;;;10521025;28;45176;-60
2022/07/15 22:03:16;;;;;;;1.10;0.88;;;19.30;54.00;21.50;94295.00;;;;10521131;28;45216;-60
2022/07/15 22:08:37;;;;;;;0.77;0.75;;;19.30;53.40;21.50;94281.00;;;;10520992;28;45186;-60
2022/07/15 22:13:58;;;;;;;1.25;0.82;;;19.30;53.40;21.50;94279.00;;;;10521554;28;45887;-60
2022/07/15 22:19:21;;;;;;;0.70;0.68;;;19.30;53.30;21.40;94277.00;;;;10521256;28;45422;-60
2022/07/15 22:24:42;;;;;;;0.88;0.77;;;19.30;53.30;21.40;94292.00;;;;10519962;27;45163;-60
2022/07/15 22:30:04;;;;;;;1.10;0.70;;;19.20;53.30;21.40;94283.00;;;;10520637;28;45169;-60
2022/07/15 22:35:27;;;;;;;1.50;0.90;;;19.20;53.30;21.40;94307.00;;;;10520070;28;45818;-60
2022/07/15 22:40:47;;;;;;;1.08;0.70;;;19.20;53.30;21.40;94300.00;;;;10520061;28;45279;-60
2022/07/15 22:46:08;;;;;;;1.20;0.90;;;19.30;53.40;21.40;94319.00;;;;10519888;28;45705;-60
2022/07/15 22:51:29;;;;;;;0.63;0.60;;;19.20;53.30;21.40;94308.00;;;;10519755;28;45203;-61
2022/07/15 22:56:52;;;;;;;1.27;0.80;;;19.20;53.40;21.40;94315.00;;;;10519245;28;45674;-60
2022/07/15 23:02:12;;;;;;;0.65;0.57;;;19.20;53.40;21.40;94305.00;;;;10519106;28;45219;-62
2022/07/15 23:07:35;;;;;;;1.05;0.90;;;19.20;53.40;21.40;94311.00;;;;10519048;28;45203;-60
2022/07/15 23:12:56;;;;;;;1.13;0.90;;;19.20;53.40;21.40;94314.00;;;;10518679;28;45196;-60
2022/07/15 23:18:16;;;;;;;0.90;0.80;;;19.20;53.30;21.40;94310.00;;;;10518844;28;45121;-60
2022/07/15 23:23:38;;;;;;;1.08;0.80;;;19.20;53.30;21.40;94335.00;;;;10518798;28;45193;-60
2022/07/15 23:28:58;;;;;;;0.93;0.73;;;19.20;53.30;21.30;94335.00;;;;10518657;28;45166;-60
2022/07/15 23:34:19;;;;;;;1.85;0.80;;;19.20;53.30;21.30;94319.00;;;;10518516;28;45689;-61
2022/07/15 23:39:41;;;;;;;0.60;0.57;;;19.20;53.30;21.30;94331.00;;;;10524066;28;45294;-60
2022/07/15 23:45:02;;;;;;;0.70;0.70;;;19.20;53.40;21.30;94340.00;;;;10525238;28;45662;-60
2022/07/15 23:50:23;;;;;;;0.93;0.75;;;19.10;53.30;21.30;94347.00;;;;10525394;28;45111;-60
2022/07/15 23:55:45;;;;;;;0.75;0.75;;;19.10;53.30;21.30;94340.00;;;;10525340;28;45723;-60
